createdAt,value
2023-04-20T00:04:05.395Z,99.18
2023-04-20T00:09:06.420Z,99.08
2023-04-20T00:14:08.796Z,99.39
2023-04-20T00:19:08.311Z,98.66
2023-04-20T00:24:07.418Z,99.99
2023-04-20T00:29:08.513Z,99.99
2023-04-20T00:34:09.875Z,99.99
2023-04-20T00:39:12.268Z,99.99
2023-04-20T00:44:11.389Z,99.99
2023-04-20T00:49:13.462Z,99.99
2023-04-20T00:54:13.515Z,99.99
2023-04-20T00:59:12.576Z,99.99
2023-04-20T01:04:13.712Z,99.99
2023-04-20T01:09:14.838Z,99.99
2023-04-20T01:14:16.924Z,99.99
2023-04-20T01:19:17.308Z,99.99
2023-04-20T01:24:16.453Z,99.99
2023-04-20T01:29:19.659Z,99.99
2023-04-20T01:34:19.775Z,99.99
2023-04-20T01:39:21.877Z,99.99
2023-04-20T01:44:18.984Z,99.99
2023-04-20T01:49:21.053Z,99.99
2023-04-20T01:54:20.133Z,99.99
2023-04-20T01:59:22.246Z,99.99
2023-04-20T02:04:21.308Z,99.99
2023-04-20T02:09:22.372Z,99.99
2023-04-20T02:14:25.460Z,99.99
2023-04-20T02:19:24.549Z,99.99
2023-04-20T02:24:26.628Z,99.99
2023-04-20T02:29:26.716Z,99.99
2023-04-20T02:34:25.787Z,99.99
2023-04-20T02:39:26.849Z,99.82
2023-04-20T02:44:28.923Z,99.99
2023-04-20T02:49:29.010Z,99.99
2023-04-20T02:54:28.077Z,99.99
2023-04-20T02:59:30.138Z,99.99
2023-04-20T03:04:29.307Z,99.99
2023-04-20T03:09:31.388Z,99.99
2023-04-20T03:14:30.448Z,99.99
2023-04-20T03:19:31.504Z,99.99
2023-04-20T03:24:33.557Z,99.99
2023-04-20T03:29:32.667Z,99.99
2023-04-20T03:34:35.711Z,99.99
2023-04-20T03:39:35.799Z,99.99
2023-04-20T03:44:34.858Z,99.99
2023-04-20T03:49:36.962Z,99.99
2023-04-20T03:54:37.036Z,99.99
2023-04-20T03:59:36.120Z,99.99
2023-04-20T04:04:37.390Z,99.99
2023-04-20T04:09:38.453Z,99.99
2023-04-20T04:14:41.524Z,99.99
2023-04-20T04:19:40.594Z,99.99
2023-04-20T04:24:41.679Z,99.99
2023-04-20T04:29:42.723Z,99.99
2023-04-20T04:34:43.775Z,99.99
2023-04-20T04:39:45.897Z,99.99
2023-04-20T04:44:47.024Z,99.99
2023-04-20T04:49:46.137Z,99.99
2023-04-20T04:54:47.210Z,99.99
2023-04-20T04:59:48.305Z,99.43
2023-04-20T05:04:50.463Z,99.23
2023-04-20T05:09:49.597Z,99.74
2023-04-20T05:14:50.649Z,98.96
2023-04-20T05:19:52.721Z,99.48
2023-04-20T05:24:51.816Z,99.48
2023-04-20T05:29:52.912Z,99.99
2023-04-20T05:34:53.995Z,99.99
2023-04-20T05:39:55.089Z,99.99
2023-04-20T05:44:57.166Z,99.99
2023-04-20T05:49:58.278Z,99.99
2023-04-20T05:54:58.361Z,99.68
2023-04-20T05:59:58.448Z,98.54
2023-04-20T06:04:58.569Z,99.68
2023-04-20T06:09:58.658Z,99.99
2023-04-20T06:14:57.709Z,99.82
2023-04-20T06:19:58.805Z,99.99
2023-04-20T06:24:59.898Z,99.05
2023-04-20T06:30:01.973Z,99.43
2023-04-20T06:35:01.379Z,99.99
2023-04-20T06:40:02.450Z,99.99
2023-04-20T06:45:03.551Z,97.25
2023-04-20T06:50:04.638Z,96.83
2023-04-20T06:55:05.705Z,96.83
2023-04-20T07:00:06.832Z,96.21
2023-04-20T07:05:07.938Z,96.48
2023-04-20T07:10:10.025Z,97.88
2023-04-20T07:15:09.147Z,97.84
2023-04-20T07:20:10.252Z,96.39
2023-04-20T07:25:12.331Z,93.74
2023-04-20T07:30:12.444Z,96.92
2023-04-20T07:35:11.512Z,97.04
2023-04-20T07:40:12.941Z,95.39
2023-04-20T07:45:14.123Z,95.24
2023-04-20T07:50:15.316Z,89.86
2023-04-20T07:55:17.456Z,93.01
2023-04-20T08:00:16.615Z,91.42
2023-04-20T08:05:17.874Z,90.76
2023-04-20T08:10:20.159Z,90.90
2023-04-20T08:15:19.236Z,85.82
2023-04-20T08:20:20.298Z,84.93
2023-04-20T08:25:21.425Z,84.32
2023-04-20T08:30:24.532Z,84.91
2023-04-20T08:35:23.573Z,84.07
2023-04-20T08:40:25.714Z,86.97
2023-04-20T08:45:24.765Z,86.75
2023-04-20T08:50:25.879Z,81.65
2023-04-20T08:55:27.031Z,83.80
2023-04-20T09:00:31.043Z,85.55
2023-04-20T09:05:27.324Z,89.42
2023-04-20T09:10:28.498Z,85.30
2023-04-20T09:15:29.620Z,87.57
2023-04-20T09:20:31.745Z,84.21
2023-04-20T09:25:30.883Z,86.60
2023-04-20T09:30:33.069Z,84.81
2023-04-20T09:35:32.314Z,84.64
2023-04-20T09:40:33.392Z,87.49
2023-04-20T09:45:34.566Z,84.69
2023-04-20T09:50:48.153Z,86.82
2023-04-20T09:55:36.636Z,87.96
2023-04-20T10:00:35.784Z,87.03
2023-04-20T10:05:38.835Z,86.06
2023-04-20T10:10:37.988Z,88.64
2023-04-20T10:15:39.087Z,85.82
2023-04-20T10:20:40.156Z,84.17
2023-04-20T10:25:42.318Z,86.05
2023-04-20T10:30:42.358Z,85.63
2023-04-20T10:35:44.621Z,84.20
2023-04-20T10:40:43.955Z,84.41
2023-04-20T10:45:43.072Z,81.06
2023-04-20T10:50:44.156Z,83.23
2023-04-20T10:55:45.317Z,83.45
2023-04-20T11:00:45.376Z,78.39
2023-04-20T11:05:46.501Z,80.18
2023-04-20T11:10:47.636Z,80.90
2023-04-20T11:15:49.721Z,78.25
2023-04-20T11:20:48.929Z,78.91
2023-04-20T11:25:50.086Z,80.35
2023-04-20T11:30:51.152Z,81.00
2023-04-20T11:35:53.225Z,81.78
2023-04-20T11:40:52.302Z,84.84
2023-04-20T11:45:53.485Z,86.03
2023-04-20T11:50:55.592Z,83.89
2023-04-20T11:55:54.696Z,85.26
2023-04-20T12:00:55.922Z,86.85
2023-04-20T12:05:57.975Z,90.51
2023-04-20T12:10:58.837Z,88.24
2023-04-20T12:15:59.029Z,91.33
2023-04-20T12:20:59.077Z,90.16
2023-04-20T12:25:58.170Z,91.29
2023-04-20T12:31:03.209Z,90.24
2023-04-20T12:36:00.257Z,91.06
2023-04-20T12:41:01.410Z,93.84
2023-04-20T12:46:02.558Z,92.38
2023-04-20T12:51:03.712Z,93.21
2023-04-20T12:56:04.801Z,96.05
2023-04-20T13:01:07.978Z,96.21
2023-04-20T13:06:07.020Z,94.48
2023-04-20T13:11:09.215Z,92.05
2023-04-20T13:16:08.278Z,93.27
2023-04-20T13:21:09.360Z,95.43
2023-04-20T13:26:10.537Z,95.39
2023-04-20T13:31:11.668Z,93.27
2023-04-20T13:36:12.733Z,95.95
2023-04-20T13:41:13.851Z,94.65
2023-04-20T13:46:16.011Z,96.30
2023-04-20T13:51:17.141Z,96.30
2023-04-20T13:56:17.308Z,97.39
2023-04-20T14:01:17.481Z,97.86
2023-04-20T14:06:16.600Z,96.77
2023-04-20T14:11:17.690Z,97.65
2023-04-20T14:16:19.888Z,95.65
2023-04-20T14:21:19.029Z,96.97
2023-04-20T14:26:20.139Z,97.34
2023-04-20T14:31:22.265Z,95.84
2023-04-20T14:36:21.423Z,96.46
2023-04-20T14:41:23.565Z,98.00
2023-04-20T14:46:21.720Z,98.62
2023-04-20T14:51:22.845Z,98.67
2023-04-20T14:56:22.984Z,97.90
2023-04-20T15:01:24.049Z,97.90
2023-04-20T15:06:25.149Z,98.57
2023-04-20T15:11:26.405Z,98.93
2023-04-20T15:16:27.488Z,99.90
2023-04-20T15:21:28.684Z,99.80
2023-04-20T15:26:29.878Z,99.70
2023-04-20T15:31:32.009Z,99.99
2023-04-20T15:36:31.300Z,99.76
2023-04-20T15:41:32.436Z,99.76
2023-04-20T15:46:33.613Z,99.55
2023-04-20T15:51:35.700Z,98.88
2023-04-20T15:56:35.916Z,99.99
2023-04-20T16:01:35.048Z,99.99
2023-04-20T16:06:36.108Z,99.99
2023-04-20T16:11:37.255Z,99.99
2023-04-20T16:16:38.394Z,99.99
2023-04-20T16:21:39.593Z,99.99
2023-04-20T16:26:41.248Z,99.99
2023-04-20T16:31:40.576Z,99.99
2023-04-20T16:36:41.664Z,99.99
2023-04-20T16:41:41.804Z,99.99
2023-04-20T16:46:43.064Z,99.99
2023-04-20T16:51:48.050Z,99.99
2023-04-20T16:56:45.274Z,99.99
2023-04-20T17:01:46.484Z,99.99
2023-04-20T17:06:48.564Z,99.99
2023-04-20T17:11:47.881Z,99.99
2023-04-20T17:16:49.047Z,99.99
2023-04-20T17:21:50.080Z,99.99
2023-04-20T17:26:50.272Z,99.99
2023-04-20T17:31:52.680Z,99.99
2023-04-20T17:36:53.862Z,99.99
2023-04-20T17:41:53.089Z,99.99
2023-04-20T17:46:54.234Z,99.99
2023-04-20T17:51:55.637Z,99.99
2023-04-20T17:56:58.729Z,99.99
2023-04-20T18:01:56.949Z,99.99
2023-04-20T18:06:56.066Z,99.99
2023-04-20T18:11:57.446Z,99.99
2023-04-20T18:16:58.850Z,99.99
2023-04-20T18:22:01.227Z,99.99
2023-04-20T18:27:01.690Z,99.99
2023-04-20T18:32:01.493Z,99.99
2023-04-20T18:37:01.053Z,99.99
2023-04-20T18:42:02.638Z,99.99
2023-04-20T18:47:02.825Z,99.99
2023-04-20T18:52:02.033Z,99.99
2023-04-20T18:57:03.504Z,99.99
2023-04-20T19:02:07.256Z,99.99
2023-04-20T19:07:03.422Z,99.99
2023-04-20T19:12:02.930Z,99.99
2023-04-20T19:17:02.403Z,99.99
2023-04-20T19:22:01.930Z,99.99
2023-04-20T19:27:02.346Z,99.99
2023-04-20T19:32:01.660Z,99.99
2023-04-20T19:36:59.963Z,99.99
2023-04-20T19:42:02.283Z,99.99
2023-04-20T19:47:01.783Z,99.99
2023-04-20T19:52:03.865Z,99.99
2023-04-20T19:57:01.220Z,99.99
2023-04-20T20:02:03.542Z,99.99
2023-04-20T20:07:02.708Z,99.99
2023-04-20T20:12:03.781Z,99.99
2023-04-20T20:17:04.873Z,99.99
2023-04-20T20:22:07.311Z,99.99
2023-04-20T20:27:06.561Z,99.46
2023-04-20T20:32:07.632Z,99.25
2023-04-20T20:37:08.743Z,98.84
2023-04-20T20:42:09.262Z,98.28
2023-04-20T20:47:10.512Z,97.91
2023-04-20T20:52:11.611Z,96.88
2023-04-20T20:57:12.697Z,95.64
2023-04-20T21:02:14.164Z,97.89
2023-04-20T21:07:15.394Z,96.29
2023-04-20T21:12:17.469Z,99.49
2023-04-20T21:17:16.572Z,99.55
2023-04-20T21:22:17.901Z,98.43
2023-04-20T21:27:18.938Z,96.01
2023-04-20T21:32:20.172Z,96.48
2023-04-20T21:37:21.630Z,95.45
2023-04-20T21:42:22.773Z,95.80
2023-04-20T21:47:24.880Z,95.70
2023-04-20T21:52:24.963Z,96.05
2023-04-20T21:57:24.030Z,95.49
2023-04-20T22:02:25.343Z,95.03
2023-04-20T22:07:26.610Z,95.59
2023-04-20T22:12:38.338Z,94.93
2023-04-20T22:17:29.441Z,95.45
2023-04-20T22:22:29.561Z,96.05
2023-04-20T22:27:28.746Z,96.21
2023-04-20T22:32:30.861Z,97.81
2023-04-20T22:37:30.235Z,96.79
2023-04-20T22:42:31.535Z,96.94
2023-04-20T22:47:32.906Z,96.33
2023-04-20T22:52:33.979Z,94.93
2023-04-20T22:57:35.081Z,94.46
2023-04-20T23:02:36.345Z,96.48
2023-04-20T23:07:37.624Z,94.74
2023-04-20T23:12:38.826Z,93.50
2023-04-20T23:17:40.933Z,93.44
2023-04-20T23:22:40.052Z,93.40
2023-04-20T23:27:42.128Z,92.37
2023-04-20T23:32:43.156Z,92.55
2023-04-20T23:37:41.495Z,92.60
2023-04-20T23:42:42.557Z,95.12
2023-04-20T23:47:43.721Z,95.37
2023-04-20T23:52:45.794Z,97.02
2023-04-20T23:57:44.908Z,95.37
